Cherrycreek, Mississippi
Current Conditions -  °F | °C
As of 4:53 PM on Friday 31 Oct 2014 (Local Time) from KTUP Reporting Station
Overcast Overcast  
Wind Chill: 13°   Ceiling: 6000
Heat Index: 13°   Visibility: 10mi
Dew Point:   Wind: 12mph
Humidity: 59%   Direction: 10°N
Pressure: 30.11"   Gusts: 21mph
Location:  34.4333°N, 88.8629°W
Report Text: KTUP 312153Z AUTO 01010G18KT 10SM FEW037 OVC060 13/05 A3011 RMK AO2 PK WND 36026/2105 SLP194 T01280050
Loading
Personal Weather Stations






























Interactive Weather Map
Tropical Storm Tracking
New forecast layout! Learn more

10-Day Weather Forecast

Advertisements
Track Severe Weather on mobile